Time;durP1;ratioP1;P1;durP2;ratioP2;P2;SDS_P1;SDS_P2;PMS_P1;PMS_P2;Temp;Humidity;BMP_temperature;BMP_pressure;BME280_temperature;BME280_humidity;BME280_pressure;Samples;Min_cycle;Max_cycle;Signal;HPM_P1;HPM_P2
2023/02/20 00:00:55;;;;;;;5.37;4.83;;;;;;;;;;4979029;28;20815;-81
2023/02/20 00:03:21;;;;;;;5.47;5.07;;;;;;;;;;4974120;28;20452;-81
2023/02/20 00:05:47;;;;;;;6.72;5.82;;;;;;;;;;4978342;28;20463;-83
2023/02/20 00:08:13;;;;;;;8.35;6.90;;;;;;;;;;4977697;28;20284;-82
2023/02/20 00:10:39;;;;;;;10.98;7.75;;;;;;;;;;4979125;28;20193;-81
2023/02/20 00:13:06;;;;;;;8.30;6.70;;;;;;;;;;4977580;28;20192;-82
2023/02/20 00:15:32;;;;;;;8.38;6.80;;;;;;;;;;4993649;28;20468;-82
2023/02/20 00:17:58;;;;;;;11.00;7.32;;;;;;;;;;4989867;28;20192;-82
2023/02/20 00:20:24;;;;;;;13.37;7.77;;;;;;;;;;4991802;28;20181;-83
2023/02/20 00:22:51;;;;;;;11.98;7.85;;;;;;;;;;4992018;28;20459;-83
2023/02/20 00:25:18;;;;;;;11.80;9.63;;;;;;;;;;4993187;28;20594;-83
2023/02/20 00:27:44;;;;;;;11.43;8.47;;;;;;;;;;4990445;28;20211;-84
2023/02/20 00:30:18;;;;;;;13.27;8.50;;;;;;;;;;4998629;28;20435;-83
2023/02/20 00:32:44;;;;;;;14.30;9.15;;;;;;;;;;4988534;28;20468;-83
2023/02/20 00:35:10;;;;;;;15.68;8.82;;;;;;;;;;4993059;28;20185;-83
2023/02/20 00:37:40;;;;;;;13.25;8.02;;;;;;;;;;4992988;28;20203;-83
2023/02/20 00:40:07;;;;;;;12.85;8.57;;;;;;;;;;4994000;28;20181;-84
2023/02/20 00:42:33;;;;;;;14.35;10.57;;;;;;;;;;4987347;28;20402;-82
2023/02/20 00:44:59;;;;;;;12.07;8.60;;;;;;;;;;4995517;28;20287;-83
2023/02/20 00:47:25;;;;;;;10.30;7.73;;;;;;;;;;4987788;28;20440;-83
2023/02/20 00:49:51;;;;;;;14.17;9.07;;;;;;;;;;4994508;28;20447;-83
2023/02/20 00:52:17;;;;;;;14.68;8.48;;;;;;;;;;4987188;28;20498;-83
2023/02/20 00:54:43;;;;;;;13.82;8.73;;;;;;;;;;4989393;28;20188;-82
2023/02/20 00:57:09;;;;;;;14.32;8.27;;;;;;;;;;4998103;28;20291;-81
2023/02/20 00:59:35;;;;;;;14.57;8.75;;;;;;;;;;5005977;28;20185;-81
2023/02/20 01:02:02;;;;;;;23.13;10.50;;;;;;;;;;4988307;28;20316;-81
2023/02/20 01:04:28;;;;;;;11.27;9.27;;;;;;;;;;4992726;28;20443;-81
2023/02/20 01:06:54;;;;;;;12.23;8.80;;;;;;;;;;4988392;28;20430;-83
2023/02/20 01:09:20;;;;;;;14.00;10.15;;;;;;;;;;4992649;28;20666;-82
2023/02/20 01:11:46;;;;;;;14.57;9.53;;;;;;;;;;4987320;28;20186;-81
2023/02/20 01:14:12;;;;;;;15.40;10.30;;;;;;;;;;4987826;28;20486;-81
2023/02/20 01:16:46;;;;;;;16.77;9.70;;;;;;;;;;4988495;28;21100;-82
2023/02/20 01:19:12;;;;;;;13.90;9.23;;;;;;;;;;4989897;28;20493;-83
2023/02/20 01:21:38;;;;;;;14.63;10.00;;;;;;;;;;4986609;28;21071;-81
2023/02/20 01:24:04;;;;;;;14.77;9.17;;;;;;;;;;4992723;28;20505;-82
2023/02/20 01:26:30;;;;;;;12.60;9.57;;;;;;;;;;4990229;28;20452;-83
2023/02/20 01:28:56;;;;;;;11.18;7.95;;;;;;;;;;4986117;28;20620;-82
2023/02/20 01:31:22;;;;;;;11.97;8.53;;;;;;;;;;4991127;28;20695;-81
2023/02/20 01:33:48;;;;;;;10.43;8.30;;;;;;;;;;4987844;28;20452;-83
2023/02/20 01:36:14;;;;;;;16.37;9.27;;;;;;;;;;4991656;28;20471;-82
2023/02/20 01:38:41;;;;;;;14.33;9.07;;;;;;;;;;4989902;28;20447;-83
2023/02/20 01:41:10;;;;;;;13.60;9.10;;;;;;;;;;4993729;28;20446;-82
2023/02/20 01:43:36;;;;;;;11.57;9.70;;;;;;;;;;4988674;28;20974;-82
2023/02/20 01:46:21;;;;;;;11.73;10.43;;;;;;;;;;4992181;28;20482;-81
2023/02/20 01:48:47;;;;;;;14.32;9.35;;;;;;;;;;4988079;28;20192;-83
2023/02/20 01:51:13;;;;;;;15.70;9.07;;;;;;;;;;4992411;28;20244;-83
2023/02/20 01:53:39;;;;;;;12.47;8.77;;;;;;;;;;4987705;28;20451;-83
2023/02/20 01:56:06;;;;;;;13.10;10.33;;;;;;;;;;4991557;28;20464;-83
2023/02/20 01:58:39;;;;;;;15.52;9.00;;;;;;;;;;4991078;28;20559;-83
2023/02/20 02:01:05;;;;;;;10.47;8.70;;;;;;;;;;4994176;28;20864;-83
2023/02/20 02:03:35;;;;;;;12.23;8.90;;;;;;;;;;4987720;28;21365;-81
2023/02/20 02:06:04;;;;;;;11.37;7.70;;;;;;;;;;4994958;28;21097;-82
2023/02/20 02:08:30;;;;;;;14.20;11.30;;;;;;;;;;4989537;28;20456;-82
2023/02/20 02:10:59;;;;;;;12.57;9.43;;;;;;;;;;4992096;28;20197;-84
2023/02/20 02:13:25;;;;;;;14.87;10.90;;;;;;;;;;5004520;28;20447;-82
2023/02/20 02:15:52;;;;;;;10.20;9.03;;;;;;;;;;5009056;28;20467;-82
2023/02/20 02:18:21;;;;;;;13.70;9.32;;;;;;;;;;5005672;28;20439;-82
2023/02/20 02:20:50;;;;;;;11.38;7.72;;;;;;;;;;5000324;28;20193;-83
2023/02/20 02:23:32;;;;;;;11.23;8.60;;;;;;;;;;4986765;28;20539;-82
2023/02/20 02:26:04;;;;;;;18.30;9.40;;;;;;;;;;4993530;28;20437;-83
2023/02/20 02:28:48;;;;;;;14.83;11.30;;;;;;;;;;4994025;28;20201;-84
2023/02/20 02:31:37;;;;;;;14.13;10.88;;;;;;;;;;4988196;28;21380;-82
2023/02/20 02:34:22;;;;;;;12.40;7.60;;;;;;;;;;4991489;28;21197;-82
2023/02/20 02:36:56;;;;;;;13.10;9.75;;;;;;;;;;4987752;28;20542;-82
2023/02/20 02:39:22;;;;;;;13.93;10.57;;;;;;;;;;4990788;28;20637;-83
2023/02/20 02:41:56;;;;;;;11.73;8.50;;;;;;;;;;4982569;28;20602;-82
2023/02/20 02:44:32;;;;;;;13.37;9.53;;;;;;;;;;4983575;28;21190;-82
2023/02/20 02:47:02;;;;;;;17.47;11.03;;;;;;;;;;4975720;28;20502;-81
2023/02/20 02:49:47;;;;;;;16.97;10.23;;;;;;;;;;4976584;28;20515;-82
2023/02/20 02:52:37;;;;;;;15.40;10.00;;;;;;;;;;4976570;28;20447;-81
2023/02/20 02:54:59;;;;;;;17.67;9.13;;;;;;;;;;4981625;28;20475;-78
2023/02/20 02:57:27;;;;;;;10.90;9.43;;;;;;;;;;4984568;28;21207;-81
2023/02/20 03:00:05;;;;;;;11.27;8.87;;;;;;;;;;4985255;28;20963;-81
2023/02/20 03:02:33;;;;;;;11.73;8.37;;;;;;;;;;4976264;28;20917;-80
2023/02/20 03:05:00;;;;;;;18.35;11.45;;;;;;;;;;4981324;28;20463;-81
2023/02/20 03:07:26;;;;;;;20.55;10.20;;;;;;;;;;4976759;28;20668;-81
2023/02/20 03:09:55;;;;;;;14.37;9.97;;;;;;;;;;4976309;28;20920;-80
2023/02/20 03:12:22;;;;;;;14.73;9.37;;;;;;;;;;4977397;28;20549;-82
2023/02/20 03:17:47;;;;;;;19.17;9.63;;;;;;;;;;4983883;28;20474;-84
2023/02/20 03:20:14;;;;;;;18.50;11.40;;;;;;;;;;4983807;28;20456;-83
2023/02/20 03:22:45;;;;;;;24.37;10.93;;;;;;;;;;4979966;28;20460;-82
2023/02/20 03:25:20;;;;;;;17.27;11.65;;;;;;;;;;4979773;28;20460;-82
2023/02/20 03:27:50;;;;;;;17.07;10.77;;;;;;;;;;4978971;28;20184;-81
2023/02/20 03:30:19;;;;;;;11.33;8.23;;;;;;;;;;4978902;28;20475;-81
2023/02/20 03:43:50;;;;;;;15.80;9.93;;;;;;;;;;4978905;28;20439;-83
2023/02/20 03:46:21;;;;;;;14.07;9.67;;;;;;;;;;4978721;28;20464;-81
2023/02/20 03:48:56;;;;;;;13.00;10.35;;;;;;;;;;4981796;28;20524;-83
2023/02/20 03:51:23;;;;;;;18.10;10.07;;;;;;;;;;4982562;28;20188;-82
2023/02/20 03:53:49;;;;;;;15.88;10.00;;;;;;;;;;4985492;28;20440;-82
2023/02/20 03:56:51;;;;;;;12.70;10.02;;;;;;;;;;4976339;28;20237;-82
2023/02/20 03:59:29;;;;;;;19.38;10.20;;;;;;;;;;4959485;28;20284;-82
2023/02/20 04:01:57;;;;;;;22.13;10.83;;;;;;;;;;4978576;28;20695;-83
2023/02/20 04:04:26;;;;;;;15.07;9.93;;;;;;;;;;4981575;28;21311;-82
2023/02/20 04:06:52;;;;;;;16.67;11.17;;;;;;;;;;4980681;28;20511;-84
2023/02/20 04:09:22;;;;;;;15.00;9.77;;;;;;;;;;4981911;28;20806;-82
2023/02/20 04:11:51;;;;;;;15.57;10.73;;;;;;;;;;4976961;28;20576;-84
2023/02/20 04:14:20;;;;;;;20.43;11.17;;;;;;;;;;4974729;28;20452;-82
2023/02/20 04:16:51;;;;;;;22.13;8.77;;;;;;;;;;4973227;28;20631;-83
2023/02/20 04:19:17;;;;;;;15.37;10.13;;;;;;;;;;4979535;28;20467;-82
2023/02/20 04:21:48;;;;;;;11.23;7.50;;;;;;;;;;4972420;28;20849;-83
2023/02/20 04:24:18;;;;;;;16.97;9.33;;;;;;;;;;4978895;28;20185;-82
2023/02/20 04:26:45;;;;;;;20.37;11.57;;;;;;;;;;4978218;28;22332;-81
2023/02/20 04:29:11;;;;;;;19.47;11.43;;;;;;;;;;4978703;28;20430;-80
2023/02/20 04:31:40;;;;;;;19.20;10.80;;;;;;;;;;4974724;28;20444;-79
2023/02/20 04:34:06;;;;;;;26.50;15.43;;;;;;;;;;4979363;28;20490;-81
2023/02/20 04:36:32;;;;;;;15.82;9.63;;;;;;;;;;4973778;28;20464;-80
2023/02/20 04:38:58;;;;;;;24.43;11.43;;;;;;;;;;4978652;28;20181;-83
2023/02/20 04:41:24;;;;;;;18.33;11.90;;;;;;;;;;4976076;28;20535;-80
2023/02/20 04:44:29;;;;;;;17.47;9.13;;;;;;;;;;4972019;28;20511;-83
2023/02/20 04:46:36;;;;;;;17.83;11.43;;;;;;;;;;4975491;28;20794;-82
2023/02/20 04:49:02;;;;;;;15.00;8.95;;;;;;;;;;4977404;28;21036;-82
2023/02/20 04:51:28;;;;;;;18.30;9.00;;;;;;;;;;4973332;28;20909;-82
2023/02/20 04:53:56;;;;;;;16.53;10.60;;;;;;;;;;4978057;28;20429;-81
2023/02/20 04:56:22;;;;;;;12.25;8.82;;;;;;;;;;4983977;28;20469;-81
2023/02/20 04:58:48;;;;;;;13.80;9.70;;;;;;;;;;4985657;28;20206;-81
2023/02/20 05:01:15;;;;;;;14.30;9.52;;;;;;;;;;4980674;28;20468;-81
2023/02/20 05:03:41;;;;;;;15.57;7.03;;;;;;;;;;4979444;28;20210;-82
2023/02/20 05:06:07;;;;;;;14.53;7.77;;;;;;;;;;4976777;28;20479;-83
2023/02/20 05:08:33;;;;;;;14.85;8.80;;;;;;;;;;4985390;28;20476;-84
2023/02/20 05:10:59;;;;;;;18.33;9.25;;;;;;;;;;4974179;28;20200;-83
2023/02/20 05:13:25;;;;;;;12.23;8.70;;;;;;;;;;4980425;28;20186;-82
2023/02/20 05:15:51;;;;;;;11.93;7.87;;;;;;;;;;4978711;28;20479;-83
2023/02/20 05:18:27;;;;;;;12.50;9.27;;;;;;;;;;4972940;28;20441;-82
2023/02/20 05:23:37;;;;;;;13.85;7.10;;;;;;;;;;4981975;28;20554;-83
2023/02/20 05:26:08;;;;;;;11.53;7.63;;;;;;;;;;4976971;28;20211;-82
2023/02/20 05:28:34;;;;;;;10.80;8.02;;;;;;;;;;4981203;28;20440;-84
2023/02/20 05:31:00;;;;;;;12.90;8.43;;;;;;;;;;4976040;28;20273;-82
2023/02/20 05:33:32;;;;;;;13.73;8.10;;;;;;;;;;4980650;28;21062;-81
2023/02/20 05:35:58;;;;;;;10.30;7.40;;;;;;;;;;4980905;28;20550;-81
2023/02/20 05:38:24;;;;;;;10.10;8.67;;;;;;;;;;4980558;28;20436;-83
2023/02/20 05:40:50;;;;;;;14.90;7.03;;;;;;;;;;4987424;28;20441;-83
2023/02/20 05:43:17;;;;;;;10.03;7.00;;;;;;;;;;4990170;28;20431;-83
2023/02/20 05:45:43;;;;;;;11.93;8.30;;;;;;;;;;4989611;28;20466;-84
2023/02/20 05:48:11;;;;;;;12.10;6.47;;;;;;;;;;4993825;28;20441;-84
2023/02/20 05:50:37;;;;;;;11.30;7.80;;;;;;;;;;4990056;28;20185;-83
2023/02/20 05:53:03;;;;;;;10.13;7.27;;;;;;;;;;4995211;28;20444;-84
2023/02/20 05:55:29;;;;;;;9.50;4.57;;;;;;;;;;4992346;28;20480;-85
2023/02/20 05:57:56;;;;;;;8.45;7.03;;;;;;;;;;4996817;28;20818;-86
2023/02/20 06:00:22;;;;;;;9.20;6.80;;;;;;;;;;4998978;28;20196;-82
2023/02/20 06:02:48;;;;;;;16.27;7.20;;;;;;;;;;4989542;28;20249;-84
2023/02/20 06:05:14;;;;;;;12.40;7.60;;;;;;;;;;4994094;28;20720;-84
2023/02/20 06:07:43;;;;;;;9.45;8.10;;;;;;;;;;4990949;28;20529;-85
2023/02/20 06:10:09;;;;;;;6.53;5.53;;;;;;;;;;5001254;28;20189;-84
2023/02/20 06:12:35;;;;;;;9.93;6.05;;;;;;;;;;5005275;28;20451;-84
2023/02/20 06:15:01;;;;;;;8.43;7.17;;;;;;;;;;4997922;28;20295;-83
2023/02/20 06:17:29;;;;;;;11.80;6.60;;;;;;;;;;4999710;28;20891;-82
2023/02/20 06:19:55;;;;;;;6.60;6.10;;;;;;;;;;5008648;28;20527;-85
2023/02/20 06:22:21;;;;;;;10.87;7.23;;;;;;;;;;5013171;28;20475;-83
2023/02/20 06:24:47;;;;;;;7.25;6.55;;;;;;;;;;5003572;28;20459;-85
2023/02/20 06:27:14;;;;;;;7.50;7.00;;;;;;;;;;4995125;28;20190;-83
2023/02/20 06:29:40;;;;;;;13.00;5.97;;;;;;;;;;4999028;28;20430;-85
2023/02/20 06:32:06;;;;;;;12.30;7.60;;;;;;;;;;5000582;28;20243;-82
2023/02/20 06:34:32;;;;;;;8.75;7.90;;;;;;;;;;4993069;28;20178;-82
2023/02/20 06:37:02;;;;;;;9.03;8.13;;;;;;;;;;4996585;28;20229;-83
2023/02/20 06:39:28;;;;;;;13.80;9.00;;;;;;;;;;5006477;28;20435;-82
2023/02/20 06:41:55;;;;;;;12.90;10.27;;;;;;;;;;5004732;28;20495;-84
2023/02/20 06:44:21;;;;;;;10.67;8.13;;;;;;;;;;5006145;28;20462;-84
2023/02/20 06:46:47;;;;;;;7.93;7.13;;;;;;;;;;4998826;28;20479;-85
2023/02/20 06:49:14;;;;;;;19.30;10.47;;;;;;;;;;4999366;28;20427;-84
2023/02/20 06:51:43;;;;;;;11.13;7.20;;;;;;;;;;4992309;28;20467;-84
2023/02/20 06:54:10;;;;;;;20.00;9.33;;;;;;;;;;5008457;28;20432;-86
2023/02/20 06:56:36;;;;;;;14.15;9.57;;;;;;;;;;4998000;28;20484;-84
2023/02/20 06:59:04;;;;;;;11.75;7.97;;;;;;;;;;5000225;28;20547;-82
2023/02/20 07:01:31;;;;;;;13.60;10.47;;;;;;;;;;4999130;28;20193;-82
2023/02/20 07:03:58;;;;;;;11.80;9.23;;;;;;;;;;5018673;28;20473;-83
2023/02/20 07:06:25;;;;;;;11.17;10.07;;;;;;;;;;4989397;28;20197;-83
2023/02/20 07:08:51;;;;;;;16.87;9.60;;;;;;;;;;4999533;28;20440;-82
2023/02/20 07:11:18;;;;;;;14.23;8.57;;;;;;;;;;4997982;28;20448;-84
2023/02/20 07:13:44;;;;;;;13.75;9.77;;;;;;;;;;5001613;28;20185;-84
2023/02/20 07:16:10;;;;;;;9.00;7.03;;;;;;;;;;4999812;28;20208;-86
2023/02/20 07:18:36;;;;;;;17.10;11.43;;;;;;;;;;4994142;28;20830;-83
2023/02/20 07:21:02;;;;;;;13.10;8.95;;;;;;;;;;4993138;28;20439;-84
2023/02/20 07:23:29;;;;;;;14.90;11.20;;;;;;;;;;4995057;28;20180;-83
2023/02/20 07:25:55;;;;;;;13.93;8.87;;;;;;;;;;4992202;28;21172;-84
2023/02/20 07:28:21;;;;;;;19.25;11.40;;;;;;;;;;4996840;28;20835;-84
2023/02/20 07:30:50;;;;;;;13.60;11.60;;;;;;;;;;4991199;28;20193;-83
2023/02/20 07:33:17;;;;;;;13.63;8.43;;;;;;;;;;4994876;28;20462;-82
2023/02/20 07:35:43;;;;;;;13.27;10.70;;;;;;;;;;4992547;28;20435;-84
2023/02/20 07:38:09;;;;;;;13.20;11.18;;;;;;;;;;4993590;28;20217;-82
2023/02/20 07:40:35;;;;;;;14.13;10.50;;;;;;;;;;4991278;28;20232;-81
2023/02/20 07:43:01;;;;;;;7.43;4.73;;;;;;;;;;4995796;28;20415;-81
2023/02/20 07:45:30;;;;;;;12.20;8.17;;;;;;;;;;4996874;28;20541;-82
2023/02/20 07:47:56;;;;;;;14.60;9.60;;;;;;;;;;4994576;28;21208;-82
2023/02/20 07:50:23;;;;;;;20.37;10.33;;;;;;;;;;4995118;28;20199;-83
2023/02/20 07:52:49;;;;;;;20.65;10.52;;;;;;;;;;4994555;28;20436;-82
2023/02/20 07:55:16;;;;;;;11.10;7.73;;;;;;;;;;4991026;28;20665;-82
2023/02/20 07:57:42;;;;;;;12.13;7.07;;;;;;;;;;4989902;28;21090;-83
2023/02/20 08:00:10;;;;;;;13.30;10.53;;;;;;;;;;4996304;28;20727;-83
2023/02/20 08:02:36;;;;;;;11.82;9.93;;;;;;;;;;4986920;28;20450;-83
2023/02/20 08:05:02;;;;;;;16.90;12.63;;;;;;;;;;4987945;28;20613;-80
2023/02/20 08:07:28;;;;;;;15.50;11.87;;;;;;;;;;4982035;28;20448;-85
2023/02/20 08:09:54;;;;;;;10.93;9.55;;;;;;;;;;4976327;28;20587;-82
2023/02/20 08:12:20;;;;;;;12.63;9.60;;;;;;;;;;4975966;28;20189;-80
2023/02/20 08:14:49;;;;;;;14.77;11.30;;;;;;;;;;4973215;28;20444;-81
2023/02/20 08:17:15;;;;;;;8.13;6.77;;;;;;;;;;4970573;28;20491;-79
2023/02/20 08:19:41;;;;;;;18.00;8.53;;;;;;;;;;4971267;28;20457;-80
2023/02/20 08:22:07;;;;;;;14.23;11.00;;;;;;;;;;4973172;28;20482;-79
2023/02/20 08:24:33;;;;;;;19.85;10.80;;;;;;;;;;4972196;28;20456;-80
2023/02/20 08:26:59;;;;;;;18.60;10.20;;;;;;;;;;4969680;28;20204;-80
2023/02/20 08:29:25;;;;;;;15.93;10.50;;;;;;;;;;4974458;28;21076;-79
2023/02/20 08:31:51;;;;;;;12.82;8.10;;;;;;;;;;4975129;28;20934;-81
2023/02/20 08:34:18;;;;;;;18.07;9.93;;;;;;;;;;4973578;28;20193;-80
2023/02/20 08:36:44;;;;;;;13.33;8.40;;;;;;;;;;4970993;28;20557;-78
2023/02/20 08:39:10;;;;;;;17.80;11.20;;;;;;;;;;4971427;28;20454;-80
2023/02/20 08:41:41;;;;;;;11.57;8.07;;;;;;;;;;4973246;28;20188;-80
2023/02/20 08:44:08;;;;;;;15.18;10.30;;;;;;;;;;4966911;28;20235;-82
2023/02/20 08:46:34;;;;;;;13.40;9.67;;;;;;;;;;4973642;28;20221;-80
2023/02/20 08:49:01;;;;;;;14.20;11.07;;;;;;;;;;4970232;28;20452;-80
2023/02/20 08:51:27;;;;;;;16.90;11.20;;;;;;;;;;4973196;28;20537;-79
2023/02/20 08:53:53;;;;;;;18.03;9.87;;;;;;;;;;4972561;28;20436;-81
2023/02/20 08:56:20;;;;;;;10.33;7.80;;;;;;;;;;4968642;28;20568;-81
2023/02/20 08:58:46;;;;;;;12.87;8.50;;;;;;;;;;4975222;28;21075;-82
2023/02/20 09:01:12;;;;;;;6.87;6.27;;;;;;;;;;4973475;28;20457;-80
2023/02/20 09:03:40;;;;;;;14.30;10.17;;;;;;;;;;4976512;28;20440;-82
2023/02/20 09:06:07;;;;;;;15.85;9.80;;;;;;;;;;4964870;28;20467;-80
2023/02/20 09:08:33;;;;;;;17.40;10.60;;;;;;;;;;4974109;28;20197;-79
2023/02/20 09:10:59;;;;;;;17.43;8.93;;;;;;;;;;4978009;28;20468;-80
2023/02/20 09:13:25;;;;;;;17.43;10.47;;;;;;;;;;4968896;28;20459;-79
2023/02/20 09:15:51;;;;;;;12.90;8.80;;;;;;;;;;4967013;28;21303;-82
2023/02/20 09:18:17;;;;;;;14.97;10.63;;;;;;;;;;4968631;28;20971;-82
2023/02/20 09:20:47;;;;;;;8.13;7.30;;;;;;;;;;4967493;28;20467;-83
2023/02/20 09:23:13;;;;;;;18.03;8.90;;;;;;;;;;4968113;28;20441;-81
2023/02/20 09:25:39;;;;;;;9.02;8.02;;;;;;;;;;4966256;28;20475;-81
2023/02/20 09:28:05;;;;;;;15.97;9.40;;;;;;;;;;4969031;28;20253;-83
2023/02/20 09:30:32;;;;;;;9.37;8.30;;;;;;;;;;4966558;28;20539;-82
2023/02/20 09:33:01;;;;;;;23.03;10.53;;;;;;;;;;4962424;28;20439;-84
2023/02/20 09:35:28;;;;;;;15.93;8.57;;;;;;;;;;4958236;28;20443;-81
2023/02/20 09:37:55;;;;;;;8.60;7.20;;;;;;;;;;4971620;28;20584;-82
2023/02/20 09:40:22;;;;;;;16.60;11.10;;;;;;;;;;4971202;28;20574;-82
2023/02/20 09:43:01;;;;;;;9.93;8.60;;;;;;;;;;4968970;28;20455;-81
2023/02/20 09:45:30;;;;;;;7.53;6.73;;;;;;;;;;4959951;28;20470;-82
2023/02/20 09:47:59;;;;;;;4.80;3.67;;;;;;;;;;4968521;28;20441;-81
2023/02/20 09:50:44;;;;;;;12.13;10.80;;;;;;;;;;4968289;28;20469;-81
2023/02/20 09:53:15;;;;;;;12.17;7.03;;;;;;;;;;4967311;28;20428;-81
2023/02/20 09:55:42;;;;;;;14.80;9.67;;;;;;;;;;4968628;28;20508;-82
2023/02/20 09:58:18;;;;;;;23.80;11.63;;;;;;;;;;4973009;28;20519;-81
2023/02/20 10:00:44;;;;;;;10.40;9.00;;;;;;;;;;4983588;28;20478;-82
2023/02/20 10:03:20;;;;;;;13.87;9.47;;;;;;;;;;4989539;28;20510;-83
2023/02/20 10:05:46;;;;;;;8.00;7.23;;;;;;;;;;4985318;28;20444;-83
2023/02/20 10:08:16;;;;;;;15.07;9.30;;;;;;;;;;4979737;28;20472;-82
2023/02/20 10:10:42;;;;;;;9.93;7.43;;;;;;;;;;4978630;28;20848;-81
2023/02/20 10:13:14;;;;;;;11.77;7.10;;;;;;;;;;4974419;28;20851;-80
2023/02/20 10:15:55;;;;;;;13.77;10.17;;;;;;;;;;4970441;28;20452;-82
2023/02/20 10:18:28;;;;;;;16.17;8.50;;;;;;;;;;4979402;28;20432;-81
2023/02/20 10:21:11;;;;;;;11.13;6.07;;;;;;;;;;4971178;28;20537;-81
2023/02/20 10:23:43;;;;;;;10.70;7.37;;;;;;;;;;4990601;28;20814;-83
2023/02/20 10:26:20;;;;;;;14.55;9.40;;;;;;;;;;4982282;28;20450;-78
2023/02/20 10:28:50;;;;;;;17.67;10.80;;;;;;;;;;4992053;28;20194;-80
2023/02/20 10:31:16;;;;;;;18.13;9.90;;;;;;;;;;4980878;28;20440;-84
2023/02/20 10:33:56;;;;;;;11.73;7.57;;;;;;;;;;4969364;28;20515;-80
2023/02/20 10:36:25;;;;;;;13.88;9.10;;;;;;;;;;4980954;28;20472;-80
2023/02/20 10:38:56;;;;;;;5.53;5.13;;;;;;;;;;4976285;28;20303;-83
2023/02/20 10:41:32;;;;;;;8.00;6.90;;;;;;;;;;4966710;28;20456;-81
2023/02/20 10:43:58;;;;;;;15.48;8.40;;;;;;;;;;4969290;28;20189;-82
2023/02/20 10:46:43;;;;;;;22.47;10.00;;;;;;;;;;4968954;28;20225;-82
2023/02/20 10:49:11;;;;;;;13.23;9.80;;;;;;;;;;4977123;28;20479;-81
2023/02/20 10:51:44;;;;;;;8.77;7.87;;;;;;;;;;4983942;28;20523;-81
2023/02/20 10:54:29;;;;;;;16.23;9.17;;;;;;;;;;4983559;28;20445;-81
2023/02/20 10:57:02;;;;;;;17.17;8.50;;;;;;;;;;4972788;28;20530;-80
2023/02/20 10:59:28;;;;;;;10.53;7.40;;;;;;;;;;4990388;28;20927;-80
2023/02/20 11:02:01;;;;;;;18.13;9.37;;;;;;;;;;4989913;28;20443;-82
2023/02/20 11:04:34;;;;;;;6.03;5.50;;;;;;;;;;4986249;28;21005;-81
2023/02/20 11:07:11;;;;;;;9.37;7.23;;;;;;;;;;4987928;28;20474;-83
2023/02/20 11:09:37;;;;;;;10.13;7.70;;;;;;;;;;4989287;28;20442;-80
2023/02/20 11:12:03;;;;;;;15.63;10.33;;;;;;;;;;4994413;28;20268;-83
2023/02/20 11:14:39;;;;;;;24.53;17.73;;;;;;;;;;4993556;28;20530;-84
2023/02/20 11:17:09;;;;;;;13.38;8.05;;;;;;;;;;4997751;28;20471;-82
2023/02/20 11:19:41;;;;;;;9.40;8.23;;;;;;;;;;4994802;28;20211;-82
2023/02/20 11:22:07;;;;;;;11.77;6.53;;;;;;;;;;4994432;28;20455;-82
2023/02/20 11:24:34;;;;;;;15.33;8.50;;;;;;;;;;4986988;28;20811;-82
2023/02/20 11:27:21;;;;;;;7.53;6.50;;;;;;;;;;4988940;28;21088;-82
2023/02/20 11:30:04;;;;;;;12.23;10.37;;;;;;;;;;4979496;28;20946;-81
2023/02/20 11:32:37;;;;;;;10.80;5.53;;;;;;;;;;4982088;28;20460;-79
2023/02/20 11:35:19;;;;;;;11.33;8.10;;;;;;;;;;4973567;28;20508;-79
2023/02/20 11:37:46;;;;;;;14.77;8.53;;;;;;;;;;4971615;28;20496;-83
2023/02/20 11:40:19;;;;;;;10.70;9.50;;;;;;;;;;4968906;28;20440;-82
2023/02/20 11:42:45;;;;;;;17.33;10.00;;;;;;;;;;4974528;28;20433;-82
2023/02/20 11:45:13;;;;;;;9.80;8.80;;;;;;;;;;4968587;28;20467;-82
2023/02/20 11:47:39;;;;;;;7.67;6.53;;;;;;;;;;4970735;28;20437;-81
2023/02/20 11:50:09;;;;;;;19.40;9.70;;;;;;;;;;4969517;28;20465;-83
2023/02/20 11:52:35;;;;;;;7.07;6.47;;;;;;;;;;4967861;28;20583;-83
2023/02/20 11:55:12;;;;;;;16.43;9.53;;;;;;;;;;4974622;28;20460;-81
2023/02/20 11:57:42;;;;;;;7.17;6.57;;;;;;;;;;4973927;28;20468;-82
2023/02/20 12:00:14;;;;;;;10.37;9.27;;;;;;;;;;4969355;28;20453;-84
2023/02/20 12:03:00;;;;;;;13.03;7.30;;;;;;;;;;4969788;28;20476;-82
2023/02/20 12:05:37;;;;;;;12.97;9.50;;;;;;;;;;4962340;28;20472;-78
2023/02/20 12:08:18;;;;;;;11.90;7.87;;;;;;;;;;4971577;28;20436;-81
2023/02/20 12:10:46;;;;;;;15.43;11.17;;;;;;;;;;4970437;28;20971;-80
2023/02/20 12:13:13;;;;;;;13.10;8.97;;;;;;;;;;4971514;28;20499;-79
2023/02/20 12:15:40;;;;;;;13.53;8.70;;;;;;;;;;4969120;28;20959;-80
2023/02/20 12:18:06;;;;;;;12.07;8.27;;;;;;;;;;4972115;28;20536;-79
2023/02/20 12:20:34;;;;;;;9.97;8.20;;;;;;;;;;4975737;28;20441;-80
2023/02/20 12:23:19;;;;;;;14.23;8.20;;;;;;;;;;4973285;28;20536;-81
2023/02/20 12:25:59;;;;;;;8.07;7.13;;;;;;;;;;4970745;28;20476;-86
2023/02/20 12:28:30;;;;;;;13.07;10.33;;;;;;;;;;4964665;28;20872;-80
2023/02/20 12:30:56;;;;;;;10.93;9.03;;;;;;;;;;4974083;28;22014;-79
2023/02/20 12:36:36;;;;;;;8.13;6.87;;;;;;;;;;4969462;28;20477;-83
2023/02/20 12:39:22;;;;;;;14.00;8.00;;;;;;;;;;4977382;28;20445;-83
2023/02/20 12:41:48;;;;;;;9.60;8.60;;;;;;;;;;4978326;28;20182;-80
2023/02/20 12:44:42;;;;;;;14.07;9.38;;;;;;;;;;4973767;28;20722;-84
2023/02/20 12:47:16;;;;;;;10.70;9.60;;;;;;;;;;4979632;28;20257;-82
2023/02/20 12:57:05;;;;;;;;;;;;;;;;;;;;;
2023/02/20 13:02:26;;;;;;;16.23;11.83;;;;;;;;;;5053654;23;20487;-82
2023/02/20 13:04:59;;;;;;;14.00;9.23;;;;;;;;;;4974282;28;20583;-79
2023/02/20 13:07:32;;;;;;;12.98;9.95;;;;;;;;;;4958473;28;20459;-78
2023/02/20 13:10:16;;;;;;;17.80;9.80;;;;;;;;;;4966009;28;20239;-80
2023/02/20 13:12:43;;;;;;;15.00;9.30;;;;;;;;;;4974621;28;20447;-80
2023/02/20 13:15:09;;;;;;;20.90;9.80;;;;;;;;;;4972466;28;21035;-80
2023/02/20 13:17:42;;;;;;;17.83;9.07;;;;;;;;;;4981445;28;20467;-79
2023/02/20 13:20:12;;;;;;;21.77;11.90;;;;;;;;;;4971934;28;20437;-80
2023/02/20 13:22:38;;;;;;;6.43;5.83;;;;;;;;;;4979893;28;20547;-84
2023/02/20 13:25:23;;;;;;;14.77;9.10;;;;;;;;;;4984097;28;20459;-83
2023/02/20 13:28:06;;;;;;;17.53;12.93;;;;;;;;;;4981327;28;20467;-78
2023/02/20 13:30:33;;;;;;;12.93;9.00;;;;;;;;;;4986928;28;20780;-77
2023/02/20 13:33:18;;;;;;;18.07;10.57;;;;;;;;;;4971226;28;20440;-79
2023/02/20 13:35:47;;;;;;;13.97;9.83;;;;;;;;;;4966051;28;20456;-80
2023/02/20 13:38:15;;;;;;;6.20;5.63;;;;;;;;;;4989093;28;21302;-79
2023/02/20 13:40:47;;;;;;;15.00;10.50;;;;;;;;;;4982689;28;20484;-79
2023/02/20 13:43:25;;;;;;;10.87;9.77;;;;;;;;;;4983368;28;20449;-78
2023/02/20 13:46:10;;;;;;;14.60;10.00;;;;;;;;;;4965159;28;20491;-79
2023/02/20 13:48:36;;;;;;;12.37;9.93;;;;;;;;;;5012110;28;20420;-86
2023/02/20 13:51:15;;;;;;;17.60;10.70;;;;;;;;;;5009422;28;20449;-83
2023/02/20 13:53:44;;;;;;;14.17;11.10;;;;;;;;;;4995083;28;20462;-83
2023/02/20 13:56:16;;;;;;;14.43;9.87;;;;;;;;;;4982957;28;20463;-82
2023/02/20 13:58:42;;;;;;;12.90;9.87;;;;;;;;;;4996294;28;20978;-80
2023/02/20 14:01:08;;;;;;;13.47;9.80;;;;;;;;;;5002636;28;20458;-82
2023/02/20 14:03:34;;;;;;;19.30;9.63;;;;;;;;;;4997231;28;20475;-81
2023/02/20 14:06:17;;;;;;;17.20;9.90;;;;;;;;;;4999365;28;20523;-82
2023/02/20 14:08:45;;;;;;;16.97;10.43;;;;;;;;;;4998596;28;20517;-80
2023/02/20 14:11:31;;;;;;;14.90;10.50;;;;;;;;;;4998094;28;20430;-81
2023/02/20 14:13:58;;;;;;;14.23;10.30;;;;;;;;;;4976846;28;21058;-83
2023/02/20 14:16:29;;;;;;;15.97;10.10;;;;;;;;;;5002922;28;20447;-82
2023/02/20 14:18:59;;;;;;;12.77;10.33;;;;;;;;;;4994278;28;20423;-84
2023/02/20 14:21:26;;;;;;;10.53;7.43;;;;;;;;;;4993701;28;20619;-84
2023/02/20 14:23:52;;;;;;;18.60;9.40;;;;;;;;;;4996588;28;20520;-84
2023/02/20 14:26:21;;;;;;;12.30;10.00;;;;;;;;;;5005118;28;20426;-83
2023/02/20 14:28:48;;;;;;;19.87;10.10;;;;;;;;;;4997276;28;20450;-83
2023/02/20 14:31:35;;;;;;;12.23;11.03;;;;;;;;;;4999090;28;20985;-82
2023/02/20 14:34:21;;;;;;;14.47;10.80;;;;;;;;;;4996896;28;20501;-84
2023/02/20 14:37:06;;;;;;;14.97;10.30;;;;;;;;;;4959325;28;20475;-82
2023/02/20 14:39:45;;;;;;;16.97;11.03;;;;;;;;;;4998674;28;20490;-82
2023/02/20 14:42:16;;;;;;;15.63;9.53;;;;;;;;;;5003269;28;20458;-82
2023/02/20 14:44:42;;;;;;;15.00;8.83;;;;;;;;;;5006167;28;20435;-85
2023/02/20 14:47:11;;;;;;;13.20;9.70;;;;;;;;;;5014811;28;20435;-84
2023/02/20 14:49:37;;;;;;;18.77;10.80;;;;;;;;;;4999708;28;20440;-85
2023/02/20 14:52:12;;;;;;;13.17;10.33;;;;;;;;;;5002274;28;20460;-83
2023/02/20 14:54:41;;;;;;;15.10;9.83;;;;;;;;;;4995960;28;20447;-83
2023/02/20 14:57:15;;;;;;;15.80;9.93;;;;;;;;;;4999627;28;20459;-84
2023/02/20 14:59:42;;;;;;;14.67;10.13;;;;;;;;;;4995322;28;21001;-83
2023/02/20 15:02:14;;;;;;;19.63;11.27;;;;;;;;;;4998381;28;20470;-84
2023/02/20 15:05:07;;;;;;;13.50;10.27;;;;;;;;;;4994037;28;20436;-83
2023/02/20 15:07:33;;;;;;;17.80;10.47;;;;;;;;;;4995107;28;20530;-84
2023/02/20 15:10:01;;;;;;;14.67;10.23;;;;;;;;;;5001582;28;20443;-83
2023/02/20 15:12:40;;;;;;;7.50;6.53;;;;;;;;;;5004839;28;20494;-81